sensor_id;sensor_type;location;lat;lon;timestamp;P1;durP1;ratioP1;P2;durP2;ratioP2
42978;SDS011;28616;44.746;19.678;2023-07-13T00:00:33;11.23;;;6.00;;
42978;SDS011;28616;44.746;19.678;2023-07-13T00:02:59;13.10;;;6.28;;
42978;SDS011;28616;44.746;19.678;2023-07-13T00:05:25;12.40;;;6.25;;
42978;SDS011;28616;44.746;19.678;2023-07-13T00:07:52;11.38;;;6.00;;
42978;SDS011;28616;44.746;19.678;2023-07-13T00:10:19;12.13;;;5.75;;
42978;SDS011;28616;44.746;19.678;2023-07-13T00:12:45;12.50;;;5.82;;
42978;SDS011;28616;44.746;19.678;2023-07-13T00:15:13;11.60;;;5.95;;
42978;SDS011;28616;44.746;19.678;2023-07-13T00:17:41;14.32;;;5.82;;
42978;SDS011;28616;44.746;19.678;2023-07-13T00:20:09;11.27;;;5.97;;
42978;SDS011;28616;44.746;19.678;2023-07-13T00:22:36;11.82;;;6.30;;
42978;SDS011;28616;44.746;19.678;2023-07-13T00:25:02;12.73;;;6.82;;
42978;SDS011;28616;44.746;19.678;2023-07-13T00:27:28;11.05;;;5.75;;
42978;SDS011;28616;44.746;19.678;2023-07-13T00:29:56;12.80;;;5.72;;
42978;SDS011;28616;44.746;19.678;2023-07-13T00:32:23;12.77;;;6.43;;
42978;SDS011;28616;44.746;19.678;2023-07-13T00:34:52;15.35;;;6.30;;
42978;SDS011;28616;44.746;19.678;2023-07-13T00:37:18;11.48;;;5.72;;
42978;SDS011;28616;44.746;19.678;2023-07-13T00:39:44;12.38;;;6.32;;
42978;SDS011;28616;44.746;19.678;2023-07-13T00:42:11;19.13;;;6.40;;
42978;SDS011;28616;44.746;19.678;2023-07-13T00:44:37;19.05;;;6.65;;
42978;SDS011;28616;44.746;19.678;2023-07-13T00:47:05;18.95;;;7.45;;
42978;SDS011;28616;44.746;19.678;2023-07-13T00:49:32;19.00;;;7.22;;
42978;SDS011;28616;44.746;19.678;2023-07-13T00:52:00;20.30;;;6.85;;
42978;SDS011;28616;44.746;19.678;2023-07-13T00:54:29;19.38;;;7.13;;
42978;SDS011;28616;44.746;19.678;2023-07-13T00:56:58;28.73;;;7.55;;
42978;SDS011;28616;44.746;19.678;2023-07-13T00:59:25;28.95;;;7.95;;
42978;SDS011;28616;44.746;19.678;2023-07-13T01:01:51;30.08;;;7.63;;
42978;SDS011;28616;44.746;19.678;2023-07-13T01:04:18;32.05;;;7.88;;
42978;SDS011;28616;44.746;19.678;2023-07-13T01:06:45;25.33;;;7.95;;
42978;SDS011;28616;44.746;19.678;2023-07-13T01:09:12;14.90;;;6.97;;
42978;SDS011;28616;44.746;19.678;2023-07-13T01:11:38;21.08;;;8.02;;
42978;SDS011;28616;44.746;19.678;2023-07-13T01:14:05;13.55;;;7.03;;
42978;SDS011;28616;44.746;19.678;2023-07-13T01:16:31;15.98;;;6.20;;
42978;SDS011;28616;44.746;19.678;2023-07-13T01:18:58;17.30;;;7.30;;
42978;SDS011;28616;44.746;19.678;2023-07-13T01:21:26;14.43;;;7.07;;
42978;SDS011;28616;44.746;19.678;2023-07-13T01:23:53;20.52;;;7.40;;
42978;SDS011;28616;44.746;19.678;2023-07-13T01:26:19;12.15;;;7.30;;
42978;SDS011;28616;44.746;19.678;2023-07-13T01:28:45;11.15;;;7.68;;
42978;SDS011;28616;44.746;19.678;2023-07-13T01:31:11;13.52;;;7.13;;
42978;SDS011;28616;44.746;19.678;2023-07-13T01:33:39;12.57;;;7.38;;
42978;SDS011;28616;44.746;19.678;2023-07-13T01:36:06;17.02;;;7.10;;
42978;SDS011;28616;44.746;19.678;2023-07-13T01:38:32;16.25;;;7.35;;
42978;SDS011;28616;44.746;19.678;2023-07-13T01:40:58;14.93;;;7.30;;
42978;SDS011;28616;44.746;19.678;2023-07-13T01:43:25;13.48;;;6.80;;
42978;SDS011;28616;44.746;19.678;2023-07-13T01:45:51;10.52;;;6.00;;
42978;SDS011;28616;44.746;19.678;2023-07-13T01:48:17;16.20;;;6.53;;
42978;SDS011;28616;44.746;19.678;2023-07-13T01:50:45;12.27;;;6.43;;
42978;SDS011;28616;44.746;19.678;2023-07-13T01:53:11;12.43;;;6.78;;
42978;SDS011;28616;44.746;19.678;2023-07-13T01:55:37;16.20;;;6.57;;
42978;SDS011;28616;44.746;19.678;2023-07-13T01:58:03;11.40;;;6.68;;
42978;SDS011;28616;44.746;19.678;2023-07-13T02:00:30;15.23;;;6.80;;
42978;SDS011;28616;44.746;19.678;2023-07-13T02:02:56;18.88;;;7.13;;
42978;SDS011;28616;44.746;19.678;2023-07-13T02:05:22;11.75;;;6.18;;
42978;SDS011;28616;44.746;19.678;2023-07-13T02:07:48;12.55;;;6.55;;
42978;SDS011;28616;44.746;19.678;2023-07-13T02:10:14;16.15;;;6.97;;
42978;SDS011;28616;44.746;19.678;2023-07-13T02:12:41;10.20;;;6.20;;
42978;SDS011;28616;44.746;19.678;2023-07-13T02:15:08;13.70;;;7.45;;
42978;SDS011;28616;44.746;19.678;2023-07-13T02:17:35;10.10;;;5.93;;
42978;SDS011;28616;44.746;19.678;2023-07-13T02:20:01;16.67;;;6.78;;
42978;SDS011;28616;44.746;19.678;2023-07-13T02:22:28;11.25;;;6.40;;
42978;SDS011;28616;44.746;19.678;2023-07-13T02:24:54;17.17;;;6.63;;
42978;SDS011;28616;44.746;19.678;2023-07-13T02:27:20;18.33;;;8.00;;
42978;SDS011;28616;44.746;19.678;2023-07-13T02:29:46;16.17;;;6.50;;
42978;SDS011;28616;44.746;19.678;2023-07-13T02:32:13;15.77;;;7.10;;
42978;SDS011;28616;44.746;19.678;2023-07-13T02:34:40;11.65;;;6.75;;
42978;SDS011;28616;44.746;19.678;2023-07-13T02:37:07;14.30;;;6.57;;
42978;SDS011;28616;44.746;19.678;2023-07-13T02:39:33;15.23;;;6.78;;
42978;SDS011;28616;44.746;19.678;2023-07-13T02:41:59;16.75;;;9.60;;
42978;SDS011;28616;44.746;19.678;2023-07-13T02:44:26;13.18;;;7.53;;
42978;SDS011;28616;44.746;19.678;2023-07-13T02:46:52;11.35;;;6.32;;
42978;SDS011;28616;44.746;19.678;2023-07-13T02:49:18;10.20;;;6.80;;
42978;SDS011;28616;44.746;19.678;2023-07-13T02:51:44;15.50;;;6.82;;
42978;SDS011;28616;44.746;19.678;2023-07-13T02:54:10;10.80;;;6.13;;
42978;SDS011;28616;44.746;19.678;2023-07-13T02:56:38;14.35;;;5.80;;
42978;SDS011;28616;44.746;19.678;2023-07-13T02:59:04;11.75;;;6.22;;
42978;SDS011;28616;44.746;19.678;2023-07-13T03:01:30;13.32;;;6.00;;
42978;SDS011;28616;44.746;19.678;2023-07-13T03:03:59;12.30;;;6.35;;
42978;SDS011;28616;44.746;19.678;2023-07-13T03:06:26;14.48;;;6.60;;
42978;SDS011;28616;44.746;19.678;2023-07-13T03:08:55;10.85;;;6.22;;
42978;SDS011;28616;44.746;19.678;2023-07-13T03:11:21;12.77;;;6.10;;
42978;SDS011;28616;44.746;19.678;2023-07-13T03:13:47;15.90;;;6.40;;
42978;SDS011;28616;44.746;19.678;2023-07-13T03:16:14;13.98;;;6.72;;
42978;SDS011;28616;44.746;19.678;2023-07-13T03:18:41;18.50;;;6.85;;
42978;SDS011;28616;44.746;19.678;2023-07-13T03:21:07;15.80;;;7.15;;
42978;SDS011;28616;44.746;19.678;2023-07-13T03:23:33;18.10;;;6.93;;
42978;SDS011;28616;44.746;19.678;2023-07-13T03:26:06;12.85;;;6.55;;
42978;SDS011;28616;44.746;19.678;2023-07-13T03:28:33;13.50;;;6.32;;
42978;SDS011;28616;44.746;19.678;2023-07-13T03:31:00;14.52;;;6.35;;
42978;SDS011;28616;44.746;19.678;2023-07-13T03:33:26;17.85;;;6.60;;
42978;SDS011;28616;44.746;19.678;2023-07-13T03:35:52;10.73;;;6.22;;
42978;SDS011;28616;44.746;19.678;2023-07-13T03:38:19;14.38;;;6.60;;
42978;SDS011;28616;44.746;19.678;2023-07-13T03:40:45;12.50;;;7.25;;
42978;SDS011;28616;44.746;19.678;2023-07-13T03:43:11;18.73;;;7.93;;
42978;SDS011;28616;44.746;19.678;2023-07-13T03:45:37;15.35;;;7.20;;
42978;SDS011;28616;44.746;19.678;2023-07-13T03:48:04;12.10;;;6.57;;
42978;SDS011;28616;44.746;19.678;2023-07-13T03:50:30;10.60;;;6.80;;
42978;SDS011;28616;44.746;19.678;2023-07-13T03:52:57;18.05;;;7.22;;
42978;SDS011;28616;44.746;19.678;2023-07-13T03:55:23;16.60;;;7.30;;
42978;SDS011;28616;44.746;19.678;2023-07-13T03:57:54;13.85;;;7.07;;
42978;SDS011;28616;44.746;19.678;2023-07-13T04:00:23;14.43;;;7.20;;
42978;SDS011;28616;44.746;19.678;2023-07-13T04:02:49;11.02;;;6.80;;
42978;SDS011;28616;44.746;19.678;2023-07-13T04:05:16;16.55;;;6.80;;
42978;SDS011;28616;44.746;19.678;2023-07-13T04:07:42;18.90;;;8.10;;
42978;SDS011;28616;44.746;19.678;2023-07-13T04:10:09;16.77;;;7.72;;
42978;SDS011;28616;44.746;19.678;2023-07-13T04:12:35;11.85;;;6.90;;
42978;SDS011;28616;44.746;19.678;2023-07-13T04:15:01;13.52;;;7.57;;
42978;SDS011;28616;44.746;19.678;2023-07-13T04:17:27;16.67;;;6.80;;
42978;SDS011;28616;44.746;19.678;2023-07-13T04:19:53;12.50;;;7.32;;
42978;SDS011;28616;44.746;19.678;2023-07-13T04:22:20;18.67;;;7.00;;
42978;SDS011;28616;44.746;19.678;2023-07-13T04:24:46;16.95;;;7.47;;
42978;SDS011;28616;44.746;19.678;2023-07-13T04:27:12;17.35;;;7.22;;
42978;SDS011;28616;44.746;19.678;2023-07-13T04:29:38;15.45;;;7.18;;
42978;SDS011;28616;44.746;19.678;2023-07-13T04:32:04;18.38;;;7.88;;
42978;SDS011;28616;44.746;19.678;2023-07-13T04:34:30;13.82;;;6.75;;
42978;SDS011;28616;44.746;19.678;2023-07-13T04:36:56;13.50;;;6.43;;
42978;SDS011;28616;44.746;19.678;2023-07-13T04:39:23;19.23;;;6.85;;
42978;SDS011;28616;44.746;19.678;2023-07-13T04:41:49;15.15;;;7.25;;
42978;SDS011;28616;44.746;19.678;2023-07-13T04:44:15;12.20;;;6.70;;
42978;SDS011;28616;44.746;19.678;2023-07-13T04:46:42;13.80;;;7.28;;
42978;SDS011;28616;44.746;19.678;2023-07-13T04:49:08;19.65;;;8.52;;
42978;SDS011;28616;44.746;19.678;2023-07-13T04:51:34;21.77;;;7.43;;
42978;SDS011;28616;44.746;19.678;2023-07-13T04:54:01;15.55;;;6.90;;
42978;SDS011;28616;44.746;19.678;2023-07-13T04:56:27;15.05;;;7.03;;
42978;SDS011;28616;44.746;19.678;2023-07-13T04:58:53;17.13;;;7.20;;
42978;SDS011;28616;44.746;19.678;2023-07-13T05:01:19;16.73;;;7.05;;
42978;SDS011;28616;44.746;19.678;2023-07-13T05:03:45;14.07;;;7.20;;
42978;SDS011;28616;44.746;19.678;2023-07-13T05:06:11;11.60;;;6.30;;
42978;SDS011;28616;44.746;19.678;2023-07-13T05:08:38;18.88;;;7.20;;
42978;SDS011;28616;44.746;19.678;2023-07-13T05:11:05;13.82;;;6.70;;
42978;SDS011;28616;44.746;19.678;2023-07-13T05:13:32;26.80;;;7.88;;
42978;SDS011;28616;44.746;19.678;2023-07-13T05:15:59;17.80;;;7.25;;
42978;SDS011;28616;44.746;19.678;2023-07-13T05:18:26;18.05;;;7.18;;
42978;SDS011;28616;44.746;19.678;2023-07-13T05:21:00;17.25;;;7.78;;
42978;SDS011;28616;44.746;19.678;2023-07-13T05:23:26;12.85;;;7.20;;
42978;SDS011;28616;44.746;19.678;2023-07-13T05:25:52;17.40;;;7.65;;
42978;SDS011;28616;44.746;19.678;2023-07-13T05:28:19;20.02;;;7.40;;
42978;SDS011;28616;44.746;19.678;2023-07-13T05:30:46;16.48;;;7.03;;
42978;SDS011;28616;44.746;19.678;2023-07-13T05:33:15;15.15;;;7.88;;
42978;SDS011;28616;44.746;19.678;2023-07-13T05:35:41;17.15;;;7.90;;
42978;SDS011;28616;44.746;19.678;2023-07-13T05:38:08;16.38;;;6.60;;
42978;SDS011;28616;44.746;19.678;2023-07-13T05:40:34;15.60;;;7.22;;
42978;SDS011;28616;44.746;19.678;2023-07-13T05:43:00;15.25;;;6.50;;
42978;SDS011;28616;44.746;19.678;2023-07-13T05:45:26;17.25;;;6.95;;
42978;SDS011;28616;44.746;19.678;2023-07-13T05:47:52;16.67;;;7.75;;
42978;SDS011;28616;44.746;19.678;2023-07-13T05:50:18;14.90;;;7.28;;
42978;SDS011;28616;44.746;19.678;2023-07-13T05:52:44;18.48;;;8.38;;
42978;SDS011;28616;44.746;19.678;2023-07-13T05:55:10;22.52;;;7.72;;
42978;SDS011;28616;44.746;19.678;2023-07-13T05:57:37;24.58;;;8.40;;
42978;SDS011;28616;44.746;19.678;2023-07-13T06:00:03;14.25;;;7.43;;
42978;SDS011;28616;44.746;19.678;2023-07-13T06:02:29;19.02;;;6.90;;
42978;SDS011;28616;44.746;19.678;2023-07-13T06:04:55;21.70;;;7.75;;
42978;SDS011;28616;44.746;19.678;2023-07-13T06:07:21;16.17;;;5.47;;
42978;SDS011;28616;44.746;19.678;2023-07-13T06:09:47;17.67;;;6.68;;
42978;SDS011;28616;44.746;19.678;2023-07-13T06:12:13;12.65;;;6.60;;
42978;SDS011;28616;44.746;19.678;2023-07-13T06:14:40;14.23;;;6.30;;
42978;SDS011;28616;44.746;19.678;2023-07-13T06:17:06;15.80;;;5.65;;
42978;SDS011;28616;44.746;19.678;2023-07-13T06:19:33;18.02;;;5.78;;
42978;SDS011;28616;44.746;19.678;2023-07-13T06:21:59;15.00;;;6.35;;
42978;SDS011;28616;44.746;19.678;2023-07-13T06:24:25;21.13;;;6.20;;
42978;SDS011;28616;44.746;19.678;2023-07-13T06:26:52;15.70;;;5.90;;
42978;SDS011;28616;44.746;19.678;2023-07-13T06:29:18;14.93;;;6.05;;
42978;SDS011;28616;44.746;19.678;2023-07-13T06:31:44;17.60;;;6.68;;
42978;SDS011;28616;44.746;19.678;2023-07-13T06:34:10;20.23;;;5.63;;
42978;SDS011;28616;44.746;19.678;2023-07-13T06:36:36;15.27;;;6.13;;
42978;SDS011;28616;44.746;19.678;2023-07-13T06:39:03;17.65;;;6.15;;
42978;SDS011;28616;44.746;19.678;2023-07-13T06:41:29;21.23;;;6.25;;
42978;SDS011;28616;44.746;19.678;2023-07-13T06:43:56;24.42;;;7.80;;
42978;SDS011;28616;44.746;19.678;2023-07-13T06:46:22;14.95;;;6.03;;
42978;SDS011;28616;44.746;19.678;2023-07-13T06:48:48;16.20;;;7.50;;
42978;SDS011;28616;44.746;19.678;2023-07-13T06:51:15;23.92;;;7.80;;
42978;SDS011;28616;44.746;19.678;2023-07-13T06:53:41;17.73;;;7.03;;
42978;SDS011;28616;44.746;19.678;2023-07-13T06:56:08;15.30;;;5.85;;
42978;SDS011;28616;44.746;19.678;2023-07-13T06:58:35;18.55;;;6.22;;
42978;SDS011;28616;44.746;19.678;2023-07-13T07:01:02;21.65;;;6.57;;
42978;SDS011;28616;44.746;19.678;2023-07-13T07:03:28;11.75;;;6.22;;
42978;SDS011;28616;44.746;19.678;2023-07-13T07:05:59;14.95;;;6.68;;
42978;SDS011;28616;44.746;19.678;2023-07-13T07:10:52;16.40;;;6.82;;
42978;SDS011;28616;44.746;19.678;2023-07-13T07:13:19;15.93;;;6.18;;
42978;SDS011;28616;44.746;19.678;2023-07-13T07:15:45;13.13;;;6.78;;
42978;SDS011;28616;44.746;19.678;2023-07-13T07:18:11;22.27;;;7.13;;
42978;SDS011;28616;44.746;19.678;2023-07-13T07:20:37;15.13;;;5.65;;
42978;SDS011;28616;44.746;19.678;2023-07-13T07:23:04;12.48;;;5.22;;
42978;SDS011;28616;44.746;19.678;2023-07-13T07:25:30;14.73;;;6.38;;
42978;SDS011;28616;44.746;19.678;2023-07-13T07:27:57;16.17;;;5.80;;
42978;SDS011;28616;44.746;19.678;2023-07-13T07:30:24;12.00;;;5.20;;
42978;SDS011;28616;44.746;19.678;2023-07-13T07:32:50;12.48;;;4.95;;
42978;SDS011;28616;44.746;19.678;2023-07-13T07:35:16;11.65;;;5.65;;
42978;SDS011;28616;44.746;19.678;2023-07-13T07:37:42;10.23;;;5.22;;
42978;SDS011;28616;44.746;19.678;2023-07-13T07:40:08;9.80;;;5.03;;
42978;SDS011;28616;44.746;19.678;2023-07-13T07:42:35;6.97;;;4.47;;
42978;SDS011;28616;44.746;19.678;2023-07-13T07:45:01;16.15;;;5.75;;
42978;SDS011;28616;44.746;19.678;2023-07-13T07:51:12;11.23;;;6.20;;
42978;SDS011;28616;44.746;19.678;2023-07-13T07:53:38;10.88;;;6.10;;
42978;SDS011;28616;44.746;19.678;2023-07-13T07:56:05;11.65;;;6.40;;
42978;SDS011;28616;44.746;19.678;2023-07-13T07:58:31;15.27;;;6.07;;
42978;SDS011;28616;44.746;19.678;2023-07-13T08:01:04;15.88;;;5.88;;
42978;SDS011;28616;44.746;19.678;2023-07-13T08:03:30;12.95;;;5.88;;
42978;SDS011;28616;44.746;19.678;2023-07-13T08:05:56;10.07;;;5.88;;
42978;SDS011;28616;44.746;19.678;2023-07-13T08:08:22;13.73;;;5.85;;
42978;SDS011;28616;44.746;19.678;2023-07-13T08:10:48;11.63;;;6.68;;
42978;SDS011;28616;44.746;19.678;2023-07-13T08:13:14;13.38;;;6.00;;
42978;SDS011;28616;44.746;19.678;2023-07-13T08:15:40;11.95;;;6.05;;
42978;SDS011;28616;44.746;19.678;2023-07-13T08:18:07;14.23;;;6.13;;
42978;SDS011;28616;44.746;19.678;2023-07-13T08:20:36;16.67;;;6.50;;
42978;SDS011;28616;44.746;19.678;2023-07-13T08:23:02;10.57;;;6.47;;
42978;SDS011;28616;44.746;19.678;2023-07-13T08:25:28;12.68;;;5.30;;
42978;SDS011;28616;44.746;19.678;2023-07-13T08:27:54;11.48;;;5.78;;
42978;SDS011;28616;44.746;19.678;2023-07-13T08:30:20;11.52;;;5.30;;
42978;SDS011;28616;44.746;19.678;2023-07-13T08:32:46;15.50;;;5.72;;
42978;SDS011;28616;44.746;19.678;2023-07-13T08:35:12;20.35;;;6.75;;
42978;SDS011;28616;44.746;19.678;2023-07-13T08:37:39;13.13;;;5.80;;
42978;SDS011;28616;44.746;19.678;2023-07-13T08:40:05;16.63;;;5.40;;
42978;SDS011;28616;44.746;19.678;2023-07-13T08:42:45;19.55;;;5.22;;
42978;SDS011;28616;44.746;19.678;2023-07-13T08:47:52;16.83;;;5.53;;
42978;SDS011;28616;44.746;19.678;2023-07-13T08:50:19;17.75;;;4.80;;
42978;SDS011;28616;44.746;19.678;2023-07-13T08:52:47;12.32;;;4.85;;
42978;SDS011;28616;44.746;19.678;2023-07-13T08:55:15;14.20;;;4.85;;
42978;SDS011;28616;44.746;19.678;2023-07-13T08:57:42;15.18;;;5.55;;
42978;SDS011;28616;44.746;19.678;2023-07-13T09:00:10;13.10;;;4.93;;
42978;SDS011;28616;44.746;19.678;2023-07-13T09:05:14;13.77;;;4.95;;
42978;SDS011;28616;44.746;19.678;2023-07-13T09:07:45;16.52;;;4.95;;
42978;SDS011;28616;44.746;19.678;2023-07-13T09:10:21;13.68;;;4.70;;
42978;SDS011;28616;44.746;19.678;2023-07-13T09:15:29;11.38;;;4.65;;
42978;SDS011;28616;44.746;19.678;2023-07-13T09:17:57;14.70;;;5.00;;
42978;SDS011;28616;44.746;19.678;2023-07-13T09:22:51;11.93;;;4.22;;
42978;SDS011;28616;44.746;19.678;2023-07-13T09:25:24;12.50;;;4.10;;
42978;SDS011;28616;44.746;19.678;2023-07-13T09:27:50;8.77;;;4.18;;
42978;SDS011;28616;44.746;19.678;2023-07-13T09:31:03;9.35;;;4.78;;
42978;SDS011;28616;44.746;19.678;2023-07-13T09:33:09;17.83;;;5.00;;
42978;SDS011;28616;44.746;19.678;2023-07-13T09:35:35;11.52;;;4.50;;
42978;SDS011;28616;44.746;19.678;2023-07-13T09:38:19;15.85;;;5.05;;
42978;SDS011;28616;44.746;19.678;2023-07-13T09:43:34;10.60;;;4.45;;
42978;SDS011;28616;44.746;19.678;2023-07-13T09:46:00;10.75;;;4.80;;
42978;SDS011;28616;44.746;19.678;2023-07-13T09:48:30;9.90;;;5.47;;
42978;SDS011;28616;44.746;19.678;2023-07-13T09:51:01;7.93;;;4.03;;
42978;SDS011;28616;44.746;19.678;2023-07-13T09:53:32;11.07;;;4.40;;
42978;SDS011;28616;44.746;19.678;2023-07-13T09:55:58;13.55;;;5.18;;
42978;SDS011;28616;44.746;19.678;2023-07-13T09:58:25;8.10;;;4.10;;
42978;SDS011;28616;44.746;19.678;2023-07-13T10:00:59;13.52;;;4.53;;
42978;SDS011;28616;44.746;19.678;2023-07-13T10:03:27;13.63;;;4.45;;
42978;SDS011;28616;44.746;19.678;2023-07-13T10:05:54;12.48;;;4.25;;
42978;SDS011;28616;44.746;19.678;2023-07-13T10:08:28;13.70;;;4.50;;
42978;SDS011;28616;44.746;19.678;2023-07-13T10:11:12;14.02;;;4.43;;
42978;SDS011;28616;44.746;19.678;2023-07-13T10:13:42;10.43;;;5.13;;
42978;SDS011;28616;44.746;19.678;2023-07-13T10:21:21;11.40;;;4.28;;
42978;SDS011;28616;44.746;19.678;2023-07-13T10:23:54;8.77;;;4.95;;
42978;SDS011;28616;44.746;19.678;2023-07-13T10:26:32;11.45;;;4.28;;
42978;SDS011;28616;44.746;19.678;2023-07-13T10:29:01;12.00;;;4.75;;
42978;SDS011;28616;44.746;19.678;2023-07-13T10:31:29;25.67;;;4.47;;
42978;SDS011;28616;44.746;19.678;2023-07-13T10:33:56;8.65;;;4.55;;
42978;SDS011;28616;44.746;19.678;2023-07-13T10:36:38;13.50;;;4.65;;
42978;SDS011;28616;44.746;19.678;2023-07-13T10:39:05;12.40;;;5.07;;
42978;SDS011;28616;44.746;19.678;2023-07-13T10:41:33;11.38;;;4.40;;
42978;SDS011;28616;44.746;19.678;2023-07-13T10:44:01;17.25;;;5.18;;
42978;SDS011;28616;44.746;19.678;2023-07-13T10:46:28;10.70;;;4.40;;
42978;SDS011;28616;44.746;19.678;2023-07-13T10:48:57;9.10;;;4.35;;
42978;SDS011;28616;44.746;19.678;2023-07-13T10:51:24;19.17;;;4.20;;
42978;SDS011;28616;44.746;19.678;2023-07-13T10:56:35;9.43;;;4.32;;
42978;SDS011;28616;44.746;19.678;2023-07-13T11:01:40;11.73;;;4.47;;
42978;SDS011;28616;44.746;19.678;2023-07-13T11:04:12;18.08;;;4.20;;
42978;SDS011;28616;44.746;19.678;2023-07-13T11:06:40;9.65;;;4.85;;
42978;SDS011;28616;44.746;19.678;2023-07-13T11:09:25;9.75;;;4.43;;
42978;SDS011;28616;44.746;19.678;2023-07-13T11:12:01;13.75;;;4.47;;
42978;SDS011;28616;44.746;19.678;2023-07-13T11:16:57;9.77;;;4.00;;
42978;SDS011;28616;44.746;19.678;2023-07-13T11:19:26;11.30;;;4.43;;
42978;SDS011;28616;44.746;19.678;2023-07-13T11:27:24;11.63;;;4.82;;
42978;SDS011;28616;44.746;19.678;2023-07-13T11:30:02;13.77;;;4.90;;
42978;SDS011;28616;44.746;19.678;2023-07-13T11:32:32;14.55;;;4.43;;
42978;SDS011;28616;44.746;19.678;2023-07-13T11:34:59;12.20;;;5.07;;
42978;SDS011;28616;44.746;19.678;2023-07-13T11:37:25;9.45;;;4.50;;
42978;SDS011;28616;44.746;19.678;2023-07-13T11:39:53;7.70;;;4.65;;
42978;SDS011;28616;44.746;19.678;2023-07-13T11:42:20;12.98;;;4.45;;
42978;SDS011;28616;44.746;19.678;2023-07-13T11:44:47;9.23;;;4.03;;
42978;SDS011;28616;44.746;19.678;2023-07-13T11:47:17;12.10;;;4.38;;
42978;SDS011;28616;44.746;19.678;2023-07-13T11:49:48;10.70;;;4.18;;
42978;SDS011;28616;44.746;19.678;2023-07-13T11:52:15;10.90;;;4.65;;
42978;SDS011;28616;44.746;19.678;2023-07-13T11:54:54;10.57;;;4.70;;
42978;SDS011;28616;44.746;19.678;2023-07-13T11:57:25;9.27;;;3.85;;
42978;SDS011;28616;44.746;19.678;2023-07-13T11:59:53;8.88;;;4.35;;
42978;SDS011;28616;44.746;19.678;2023-07-13T12:02:31;9.32;;;4.13;;
42978;SDS011;28616;44.746;19.678;2023-07-13T12:04:58;13.70;;;4.40;;
42978;SDS011;28616;44.746;19.678;2023-07-13T12:07:24;11.60;;;5.10;;
42978;SDS011;28616;44.746;19.678;2023-07-13T12:09:53;12.38;;;4.70;;
42978;SDS011;28616;44.746;19.678;2023-07-13T12:12:20;10.43;;;4.70;;
42978;SDS011;28616;44.746;19.678;2023-07-13T12:14:50;11.90;;;4.60;;
42978;SDS011;28616;44.746;19.678;2023-07-13T12:17:21;15.02;;;4.63;;
42978;SDS011;28616;44.746;19.678;2023-07-13T12:19:51;11.25;;;4.82;;
42978;SDS011;28616;44.746;19.678;2023-07-13T12:22:17;11.73;;;5.28;;
42978;SDS011;28616;44.746;19.678;2023-07-13T12:24:45;15.55;;;4.53;;
42978;SDS011;28616;44.746;19.678;2023-07-13T12:27:19;16.02;;;4.60;;
42978;SDS011;28616;44.746;19.678;2023-07-13T12:29:52;22.08;;;4.65;;
42978;SDS011;28616;44.746;19.678;2023-07-13T12:32:23;14.20;;;4.25;;
42978;SDS011;28616;44.746;19.678;2023-07-13T12:35:39;10.57;;;4.95;;
42978;SDS011;28616;44.746;19.678;2023-07-13T12:37:41;12.35;;;4.57;;
42978;SDS011;28616;44.746;19.678;2023-07-13T12:40:17;11.98;;;4.47;;
42978;SDS011;28616;44.746;19.678;2023-07-13T12:42:45;12.73;;;4.30;;
42978;SDS011;28616;44.746;19.678;2023-07-13T12:45:23;9.85;;;4.35;;
42978;SDS011;28616;44.746;19.678;2023-07-13T12:47:52;10.45;;;3.88;;
42978;SDS011;28616;44.746;19.678;2023-07-13T12:50:23;12.93;;;4.03;;
42978;SDS011;28616;44.746;19.678;2023-07-13T12:52:54;8.85;;;4.38;;
42978;SDS011;28616;44.746;19.678;2023-07-13T12:55:23;10.30;;;4.57;;
42978;SDS011;28616;44.746;19.678;2023-07-13T12:57:50;9.48;;;3.83;;
42978;SDS011;28616;44.746;19.678;2023-07-13T13:02:46;13.15;;;4.43;;
42978;SDS011;28616;44.746;19.678;2023-07-13T13:05:15;11.75;;;4.10;;
42978;SDS011;28616;44.746;19.678;2023-07-13T13:07:41;11.40;;;4.20;;
42978;SDS011;28616;44.746;19.678;2023-07-13T13:10:13;11.05;;;4.22;;
42978;SDS011;28616;44.746;19.678;2023-07-13T13:12:40;14.50;;;4.15;;
42978;SDS011;28616;44.746;19.678;2023-07-13T13:15:09;14.27;;;5.40;;
42978;SDS011;28616;44.746;19.678;2023-07-13T13:17:39;10.70;;;5.18;;
42978;SDS011;28616;44.746;19.678;2023-07-13T13:20:15;11.35;;;4.78;;
42978;SDS011;28616;44.746;19.678;2023-07-13T13:22:42;12.38;;;3.97;;
42978;SDS011;28616;44.746;19.678;2023-07-13T13:25:11;11.95;;;4.30;;
42978;SDS011;28616;44.746;19.678;2023-07-13T13:27:39;12.90;;;4.13;;
42978;SDS011;28616;44.746;19.678;2023-07-13T13:30:10;11.73;;;4.35;;
42978;SDS011;28616;44.746;19.678;2023-07-13T13:32:38;13.57;;;4.25;;
42978;SDS011;28616;44.746;19.678;2023-07-13T13:35:05;16.95;;;4.80;;
42978;SDS011;28616;44.746;19.678;2023-07-13T13:37:31;14.23;;;4.32;;
42978;SDS011;28616;44.746;19.678;2023-07-13T13:39:57;11.70;;;3.55;;
42978;SDS011;28616;44.746;19.678;2023-07-13T13:42:24;18.25;;;4.13;;
42978;SDS011;28616;44.746;19.678;2023-07-13T13:44:52;15.20;;;3.70;;
42978;SDS011;28616;44.746;19.678;2023-07-13T13:47:27;10.55;;;4.15;;
42978;SDS011;28616;44.746;19.678;2023-07-13T13:49:54;13.65;;;4.05;;
42978;SDS011;28616;44.746;19.678;2023-07-13T13:52:20;13.38;;;4.25;;
42978;SDS011;28616;44.746;19.678;2023-07-13T13:54:46;9.63;;;3.70;;
42978;SDS011;28616;44.746;19.678;2023-07-13T13:57:12;18.95;;;4.45;;
42978;SDS011;28616;44.746;19.678;2023-07-13T13:59:38;14.57;;;3.75;;
42978;SDS011;28616;44.746;19.678;2023-07-13T14:02:19;9.77;;;3.53;;
42978;SDS011;28616;44.746;19.678;2023-07-13T14:04:49;13.70;;;4.00;;
42978;SDS011;28616;44.746;19.678;2023-07-13T14:07:15;7.85;;;3.50;;
42978;SDS011;28616;44.746;19.678;2023-07-13T14:09:42;12.43;;;3.75;;
42978;SDS011;28616;44.746;19.678;2023-07-13T14:12:09;8.63;;;2.95;;
42978;SDS011;28616;44.746;19.678;2023-07-13T14:14:37;9.07;;;3.40;;
42978;SDS011;28616;44.746;19.678;2023-07-13T14:17:03;13.25;;;3.70;;
42978;SDS011;28616;44.746;19.678;2023-07-13T14:19:30;7.65;;;3.58;;
42978;SDS011;28616;44.746;19.678;2023-07-13T14:21:56;9.90;;;3.35;;
42978;SDS011;28616;44.746;19.678;2023-07-13T14:24:23;9.27;;;4.25;;
42978;SDS011;28616;44.746;19.678;2023-07-13T14:26:49;7.65;;;3.03;;
42978;SDS011;28616;44.746;19.678;2023-07-13T14:29:16;12.52;;;3.53;;
42978;SDS011;28616;44.746;19.678;2023-07-13T14:31:43;9.82;;;3.60;;
42978;SDS011;28616;44.746;19.678;2023-07-13T14:34:10;8.15;;;3.63;;
42978;SDS011;28616;44.746;19.678;2023-07-13T14:36:41;12.07;;;3.35;;
42978;SDS011;28616;44.746;19.678;2023-07-13T14:39:13;14.40;;;2.70;;
42978;SDS011;28616;44.746;19.678;2023-07-13T14:41:40;7.18;;;2.83;;
42978;SDS011;28616;44.746;19.678;2023-07-13T14:46:38;8.20;;;3.03;;
42978;SDS011;28616;44.746;19.678;2023-07-13T14:49:23;9.73;;;3.20;;
42978;SDS011;28616;44.746;19.678;2023-07-13T14:51:50;7.57;;;2.90;;
42978;SDS011;28616;44.746;19.678;2023-07-13T14:54:16;12.20;;;3.42;;
42978;SDS011;28616;44.746;19.678;2023-07-13T14:56:42;9.00;;;3.10;;
42978;SDS011;28616;44.746;19.678;2023-07-13T14:59:08;11.60;;;3.17;;
42978;SDS011;28616;44.746;19.678;2023-07-13T15:01:35;15.55;;;4.15;;
42978;SDS011;28616;44.746;19.678;2023-07-13T15:04:02;10.48;;;3.00;;
42978;SDS011;28616;44.746;19.678;2023-07-13T15:06:29;9.63;;;2.63;;
42978;SDS011;28616;44.746;19.678;2023-07-13T15:08:56;16.98;;;3.22;;